createdAt,value
2022-10-09T00:01:25.767Z,14.75
2022-10-09T00:04:11.861Z,14.72
2022-10-09T00:06:57.959Z,14.71
2022-10-09T00:09:43.829Z,14.69
2022-10-09T00:12:29.821Z,14.66
2022-10-09T00:15:16.140Z,14.68
2022-10-09T00:18:02.233Z,14.71
2022-10-09T00:20:48.265Z,14.70
2022-10-09T00:23:34.299Z,14.65
2022-10-09T00:26:20.327Z,14.71
2022-10-09T00:29:06.635Z,14.70
2022-10-09T00:31:52.632Z,14.69
2022-10-09T00:34:38.591Z,14.62
2022-10-09T00:37:24.707Z,14.68
2022-10-09T00:40:10.845Z,14.67
2022-10-09T00:42:58.266Z,14.62
2022-10-09T00:45:49.407Z,14.66
2022-10-09T00:48:35.501Z,14.72
2022-10-09T00:51:21.277Z,14.68
2022-10-09T00:54:09.286Z,14.74
2022-10-09T00:56:55.602Z,14.72
2022-10-09T00:59:41.722Z,14.71
2022-10-09T01:02:31.690Z,14.73
2022-10-09T01:05:19.238Z,14.76
2022-10-09T01:08:16.327Z,14.73
2022-10-09T01:11:22.184Z,14.76
2022-10-09T01:14:17.680Z,14.78
2022-10-09T01:17:15.456Z,14.75
2022-10-09T01:20:17.874Z,14.63
2022-10-09T01:23:16.965Z,14.60
2022-10-09T01:26:34.240Z,14.67
2022-10-09T01:29:22.722Z,14.68
2022-10-09T01:32:15.972Z,14.63
2022-10-09T01:35:03.874Z,14.66
2022-10-09T01:37:53.882Z,14.62
2022-10-09T01:40:45.337Z,14.65
2022-10-09T01:43:34.070Z,14.63
2022-10-09T01:46:33.465Z,14.58
2022-10-09T01:49:54.575Z,14.62
2022-10-09T01:52:50.779Z,14.64
2022-10-09T01:55:53.933Z,14.64
2022-10-09T01:59:00.314Z,14.58
2022-10-09T02:01:48.749Z,14.52
2022-10-09T02:04:37.992Z,14.58
2022-10-09T02:07:26.015Z,14.55
2022-10-09T02:10:20.611Z,14.56
2022-10-09T02:13:09.485Z,14.57
2022-10-09T02:16:18.457Z,14.56
2022-10-09T02:19:18.969Z,14.51
2022-10-09T02:22:20.432Z,14.47
2022-10-09T02:25:14.086Z,14.45
2022-10-09T02:28:06.292Z,14.38
2022-10-09T02:31:04.056Z,14.42
2022-10-09T02:33:59.501Z,14.40
2022-10-09T02:36:48.130Z,14.42
2022-10-09T02:39:39.116Z,14.40
2022-10-09T02:42:31.000Z,14.37
2022-10-09T02:45:21.996Z,14.30
2022-10-09T02:48:13.600Z,14.28
2022-10-09T02:51:04.630Z,14.25
2022-10-09T02:53:56.951Z,14.27
2022-10-09T02:56:45.779Z,14.29
2022-10-09T02:59:33.510Z,14.35
2022-10-09T03:02:24.829Z,14.17
2022-10-09T03:05:15.184Z,14.21
2022-10-09T03:08:03.024Z,14.26
2022-10-09T03:10:51.005Z,14.21
2022-10-09T03:13:40.494Z,14.19
2022-10-09T03:16:33.985Z,14.17
2022-10-09T03:19:21.100Z,14.15
2022-10-09T03:22:12.085Z,14.15
2022-10-09T03:25:02.547Z,14.08
2022-10-09T03:27:50.295Z,14.08
2022-10-09T03:30:42.702Z,13.96
2022-10-09T03:33:30.660Z,14.01
2022-10-09T03:36:18.577Z,13.95
2022-10-09T03:39:08.773Z,13.94
2022-10-09T03:41:59.362Z,13.91
2022-10-09T03:44:46.753Z,13.83
2022-10-09T03:47:34.577Z,13.81
2022-10-09T03:50:22.543Z,13.83
2022-10-09T03:53:14.766Z,13.83
2022-10-09T03:56:04.561Z,13.88
2022-10-09T03:58:52.590Z,13.77
2022-10-09T04:01:40.378Z,13.83
2022-10-09T04:04:28.403Z,13.78
2022-10-09T04:07:16.696Z,13.79
2022-10-09T04:10:04.528Z,13.75
2022-10-09T04:12:52.119Z,13.65
2022-10-09T04:15:40.455Z,13.66
2022-10-09T04:18:32.052Z,13.74
2022-10-09T04:21:20.579Z,13.69
2022-10-09T04:24:09.092Z,13.54
2022-10-09T04:26:57.752Z,13.62
2022-10-09T04:29:45.989Z,13.63
2022-10-09T04:32:34.169Z,13.61
2022-10-09T04:35:27.443Z,13.60
2022-10-09T04:38:14.873Z,13.45
2022-10-09T04:41:07.750Z,13.54
2022-10-09T04:43:57.956Z,13.51
2022-10-09T04:46:45.559Z,13.45
2022-10-09T04:49:33.519Z,13.40
2022-10-09T04:52:20.875Z,13.44
2022-10-09T04:55:09.480Z,13.44
2022-10-09T04:58:04.051Z,13.43
2022-10-09T05:00:51.893Z,13.40
2022-10-09T05:03:40.442Z,13.35
2022-10-09T05:06:27.247Z,13.37
2022-10-09T05:09:14.175Z,13.36
2022-10-09T05:12:02.302Z,13.37
2022-10-09T05:14:53.336Z,13.30
2022-10-09T05:17:40.898Z,13.32
2022-10-09T05:20:37.056Z,13.15
2022-10-09T05:23:28.565Z,13.28
2022-10-09T05:26:20.093Z,13.39
2022-10-09T05:29:07.380Z,13.40
2022-10-09T05:31:54.822Z,13.41
2022-10-09T05:34:45.794Z,13.32
2022-10-09T05:37:39.047Z,13.40
2022-10-09T05:40:29.217Z,13.55
2022-10-09T05:43:29.663Z,13.60
2022-10-09T05:46:25.167Z,13.63
2022-10-09T06:02:53.921Z,12.24
2022-10-09T06:05:53.776Z,12.45
2022-10-09T06:08:43.273Z,12.77
2022-10-09T06:11:35.550Z,12.85
2022-10-09T06:14:27.539Z,13.04
2022-10-09T06:17:14.344Z,13.40
2022-10-09T06:20:01.499Z,13.60
2022-10-09T06:22:48.324Z,13.87
2022-10-09T06:25:35.826Z,14.00
2022-10-09T06:28:29.065Z,14.13
2022-10-09T06:31:27.740Z,14.25
2022-10-09T06:34:20.499Z,14.30
2022-10-09T06:37:28.261Z,14.32
2022-10-09T06:40:23.793Z,14.54
2022-10-09T06:43:16.118Z,14.54
2022-10-09T06:46:06.645Z,14.48
2022-10-09T06:49:03.333Z,14.73
2022-10-09T06:51:53.538Z,14.79
2022-10-09T06:54:50.367Z,14.85
2022-10-09T06:57:37.255Z,14.89
2022-10-09T07:00:23.145Z,15.07
2022-10-09T07:03:08.931Z,15.14
2022-10-09T07:05:56.981Z,15.21
2022-10-09T07:08:48.458Z,15.16
2022-10-09T07:11:40.222Z,15.24
2022-10-09T07:14:26.582Z,15.30
2022-10-09T07:17:12.639Z,15.31
2022-10-09T07:19:58.832Z,15.40
2022-10-09T07:22:44.921Z,15.40
2022-10-09T07:25:30.757Z,15.46
2022-10-09T07:28:16.826Z,15.49
2022-10-09T07:31:04.341Z,15.51
2022-10-09T07:33:51.497Z,15.64
2022-10-09T07:36:37.852Z,15.61
2022-10-09T07:39:23.675Z,15.78
2022-10-09T07:42:09.517Z,15.95
2022-10-09T07:44:55.568Z,16.04
2022-10-09T07:47:41.347Z,16.06
2022-10-09T07:50:27.334Z,16.18
2022-10-09T07:53:13.323Z,16.39
2022-10-09T07:55:59.268Z,16.49
2022-10-09T07:58:51.934Z,16.56
2022-10-09T08:01:39.196Z,16.65
2022-10-09T08:04:25.257Z,16.80
2022-10-09T08:07:11.239Z,16.78
2022-10-09T08:09:57.271Z,16.99
2022-10-09T08:12:43.169Z,17.04
2022-10-09T08:15:29.164Z,17.14
2022-10-09T08:18:15.400Z,17.30
2022-10-09T08:21:03.840Z,17.37
2022-10-09T08:23:54.140Z,17.40
2022-10-09T08:26:44.352Z,17.49
2022-10-09T08:29:30.697Z,17.73
2022-10-09T08:32:16.823Z,17.84
2022-10-09T08:35:03.408Z,18.00
2022-10-09T08:37:49.661Z,18.13
2022-10-09T08:40:58.303Z,18.33
2022-10-09T08:43:47.578Z,18.40
2022-10-09T08:46:46.819Z,18.37
2022-10-09T08:50:02.091Z,18.46
2022-10-09T08:53:25.770Z,18.72
2022-10-09T08:56:14.595Z,18.86
2022-10-09T08:59:02.168Z,19.00
2022-10-09T09:01:52.878Z,19.15
2022-10-09T09:04:38.916Z,19.30
2022-10-09T09:07:24.955Z,19.45
2022-10-09T09:10:28.001Z,19.41
2022-10-09T09:13:29.327Z,19.61
2022-10-09T09:16:25.020Z,19.50
2022-10-09T09:19:37.515Z,19.63
2022-10-09T09:22:27.274Z,19.73
2022-10-09T09:25:24.628Z,19.83
2022-10-09T09:28:35.062Z,19.84
2022-10-09T09:31:28.592Z,19.85
2022-10-09T09:34:39.581Z,19.97
2022-10-09T09:37:25.938Z,20.26
2022-10-09T09:40:36.856Z,20.36
2022-10-09T09:43:24.663Z,20.36
2022-10-09T09:46:40.889Z,20.13
2022-10-09T09:49:29.969Z,20.55
2022-10-09T09:52:16.182Z,20.54
2022-10-09T09:55:02.492Z,20.72
2022-10-09T09:57:49.129Z,20.58
2022-10-09T10:00:35.894Z,20.74
2022-10-09T10:03:24.718Z,20.81
2022-10-09T10:06:44.168Z,20.71
2022-10-09T10:09:31.839Z,20.81
2022-10-09T10:12:18.605Z,20.86
2022-10-09T10:15:05.063Z,20.99
2022-10-09T10:18:14.320Z,20.97
2022-10-09T10:21:08.764Z,21.06
2022-10-09T10:24:03.711Z,21.06
2022-10-09T10:26:55.694Z,21.25
2022-10-09T10:29:44.330Z,21.36
2022-10-09T10:32:46.944Z,21.53
2022-10-09T10:35:34.315Z,21.33
2022-10-09T10:38:30.484Z,21.47
2022-10-09T10:41:37.824Z,21.59
2022-10-09T10:44:40.218Z,21.73
2022-10-09T10:47:30.953Z,21.87
2022-10-09T10:50:17.602Z,21.93
2022-10-09T10:53:11.470Z,22.00
2022-10-09T10:56:04.943Z,21.82
2022-10-09T10:59:21.139Z,21.98
2022-10-09T11:02:10.085Z,21.96
2022-10-09T11:05:01.899Z,22.11
2022-10-09T11:08:03.453Z,22.07
2022-10-09T11:11:07.990Z,22.12
2022-10-09T11:14:14.555Z,22.23
2022-10-09T11:17:31.973Z,22.12
2022-10-09T11:20:42.805Z,22.23
2022-10-09T11:23:55.371Z,22.16
2022-10-09T11:27:29.714Z,22.24
2022-10-09T11:30:17.574Z,22.40
2022-10-09T11:33:31.364Z,22.37
2022-10-09T11:36:26.982Z,22.34
2022-10-09T11:39:18.216Z,22.54
2022-10-09T11:42:05.377Z,22.45
2022-10-09T11:45:14.443Z,22.56
2022-10-09T11:48:25.018Z,22.52
2022-10-09T11:51:29.754Z,22.44
2022-10-09T11:54:17.922Z,22.46
2022-10-09T11:57:06.427Z,22.38
2022-10-09T12:00:04.581Z,22.31
2022-10-09T12:02:59.036Z,22.17
2022-10-09T12:05:47.469Z,22.33
2022-10-09T12:08:33.704Z,22.23
2022-10-09T12:11:20.310Z,22.17
2022-10-09T12:14:08.599Z,22.16
2022-10-09T12:16:54.889Z,22.11
2022-10-09T12:19:42.070Z,22.08
2022-10-09T12:22:35.901Z,22.08
2022-10-09T12:25:30.979Z,21.99
2022-10-09T12:28:30.169Z,21.96
2022-10-09T12:31:21.985Z,21.96
2022-10-09T12:34:24.449Z,21.78
2022-10-09T12:37:12.596Z,21.72
2022-10-09T12:40:14.408Z,21.80
2022-10-09T12:43:07.031Z,21.79
2022-10-09T12:45:54.452Z,21.77
2022-10-09T12:48:42.461Z,21.74
2022-10-09T12:51:32.453Z,21.82
2022-10-09T12:54:18.693Z,21.83
2022-10-09T12:57:04.854Z,21.71
2022-10-09T12:59:51.310Z,21.78
2022-10-09T13:02:37.813Z,21.89
2022-10-09T13:05:24.062Z,21.81
2022-10-09T13:08:26.355Z,21.82
2022-10-09T13:11:18.176Z,21.83
2022-10-09T13:14:04.906Z,21.90
2022-10-09T13:16:50.826Z,22.04
2022-10-09T13:19:37.211Z,22.00
2022-10-09T13:22:25.542Z,22.19
2022-10-09T13:25:11.509Z,22.39
2022-10-09T13:27:57.907Z,22.48
2022-10-09T13:30:44.212Z,22.56
2022-10-09T13:33:29.934Z,22.78
2022-10-09T13:36:17.174Z,22.98
2022-10-09T13:39:03.521Z,23.30
2022-10-09T13:41:52.990Z,23.53
2022-10-09T13:44:39.126Z,23.67
2022-10-09T13:47:25.202Z,23.83
2022-10-09T13:50:14.105Z,24.00
2022-10-09T13:53:00.302Z,24.18
2022-10-09T13:55:46.147Z,24.29
2022-10-09T13:58:31.937Z,24.26
2022-10-09T14:01:17.932Z,24.29
2022-10-09T14:04:03.989Z,24.39
2022-10-09T14:06:50.231Z,24.48
2022-10-09T14:09:36.906Z,24.72
2022-10-09T14:12:23.233Z,25.02
2022-10-09T14:15:09.682Z,25.28
2022-10-09T14:17:55.679Z,25.66
2022-10-09T14:20:41.637Z,25.84
2022-10-09T14:23:27.566Z,25.91
2022-10-09T14:26:13.673Z,25.95
2022-10-09T14:29:01.873Z,26.13
2022-10-09T14:31:51.075Z,26.09
2022-10-09T14:34:36.924Z,26.04
2022-10-09T14:37:40.917Z,26.16
2022-10-09T14:40:27.863Z,26.14
2022-10-09T14:43:13.971Z,26.04
2022-10-09T14:46:12.161Z,25.89
2022-10-09T14:48:59.023Z,25.72
2022-10-09T14:51:45.216Z,25.44
2022-10-09T14:54:31.345Z,25.12
2022-10-09T14:57:17.324Z,24.84
2022-10-09T15:00:05.159Z,24.17
2022-10-09T15:02:51.113Z,24.25
2022-10-09T15:05:37.302Z,24.20
2022-10-09T15:08:23.252Z,24.01
2022-10-09T15:11:10.605Z,23.94
2022-10-09T15:13:56.551Z,23.67
2022-10-09T15:16:42.397Z,23.76
2022-10-09T15:19:28.325Z,23.64
2022-10-09T15:22:14.280Z,23.71
2022-10-09T15:25:00.330Z,23.85
2022-10-09T15:27:46.603Z,23.95
2022-10-09T15:30:34.239Z,23.87
2022-10-09T15:33:22.303Z,23.86
2022-10-09T15:36:08.283Z,23.72
2022-10-09T15:38:54.391Z,23.63
2022-10-09T15:41:42.224Z,23.61
2022-10-09T15:44:28.274Z,23.49
2022-10-09T15:47:16.789Z,23.34
2022-10-09T15:50:03.802Z,23.14
2022-10-09T15:52:49.984Z,23.10
2022-10-09T15:55:39.550Z,22.96
2022-10-09T15:58:25.625Z,22.81
2022-10-09T16:01:14.946Z,22.73
2022-10-09T16:04:00.920Z,22.52
2022-10-09T16:06:46.861Z,22.43
2022-10-09T16:09:34.323Z,22.29
2022-10-09T16:12:20.282Z,22.21
2022-10-09T16:15:06.646Z,22.01
2022-10-09T16:17:52.620Z,21.91
2022-10-09T16:20:40.424Z,21.79
2022-10-09T16:23:26.815Z,21.63
2022-10-09T16:26:15.878Z,21.52
2022-10-09T16:29:02.063Z,21.42
2022-10-09T16:31:47.975Z,21.34
2022-10-09T16:34:34.040Z,21.22
2022-10-09T16:37:19.939Z,21.09
2022-10-09T16:40:06.445Z,21.02
2022-10-09T16:42:52.556Z,20.89
2022-10-09T16:45:39.432Z,20.82
2022-10-09T16:48:25.423Z,20.73
2022-10-09T16:51:14.180Z,20.71
2022-10-09T16:54:01.919Z,20.62
2022-10-09T16:56:47.914Z,20.46
2022-10-09T16:59:33.994Z,20.39
2022-10-09T17:02:20.139Z,20.36
2022-10-09T17:05:07.424Z,20.32
2022-10-09T17:07:54.580Z,20.20
2022-10-09T17:10:42.276Z,20.11
2022-10-09T17:13:28.379Z,20.10
2022-10-09T17:16:18.714Z,19.97
2022-10-09T17:19:05.383Z,19.94
2022-10-09T17:21:51.660Z,19.87
2022-10-09T17:24:37.807Z,19.81
2022-10-09T17:27:24.229Z,19.67
2022-10-09T17:30:13.122Z,19.67
2022-10-09T17:32:59.426Z,19.58
2022-10-09T17:35:45.597Z,19.55
2022-10-09T17:38:31.503Z,19.48
2022-10-09T17:41:19.373Z,19.43
2022-10-09T17:44:05.845Z,19.37
2022-10-09T17:46:51.810Z,19.31
2022-10-09T17:49:38.027Z,19.19
2022-10-09T17:52:23.958Z,19.17
2022-10-09T17:55:09.934Z,19.13
2022-10-09T17:57:56.199Z,19.02
2022-10-09T18:00:42.483Z,19.04
2022-10-09T18:03:28.608Z,18.96
2022-10-09T18:06:18.088Z,18.89
2022-10-09T18:09:04.603Z,18.86
2022-10-09T18:11:50.825Z,18.80
2022-10-09T18:14:36.770Z,18.67
2022-10-09T18:17:22.667Z,18.66
2022-10-09T18:20:09.042Z,18.54
2022-10-09T18:22:55.329Z,18.55
2022-10-09T18:25:44.888Z,18.45
2022-10-09T18:28:30.706Z,18.51
2022-10-09T18:31:19.435Z,18.49
2022-10-09T18:34:06.265Z,18.41
2022-10-09T18:36:52.602Z,18.29
2022-10-09T18:39:38.808Z,18.29
2022-10-09T18:42:25.094Z,18.33
2022-10-09T18:45:13.295Z,18.28
2022-10-09T18:48:00.844Z,18.12
2022-10-09T18:50:47.341Z,18.20
2022-10-09T18:53:36.001Z,18.17
2022-10-09T18:56:22.848Z,18.15
2022-10-09T18:59:12.232Z,18.05
2022-10-09T19:01:58.388Z,18.06
2022-10-09T19:04:44.474Z,17.98
2022-10-09T19:07:30.374Z,17.95
2022-10-09T19:10:16.551Z,17.78
2022-10-09T19:13:02.631Z,17.79
2022-10-09T19:15:56.683Z,17.76
2022-10-09T19:18:42.834Z,17.70
2022-10-09T19:21:28.805Z,17.72
2022-10-09T19:24:14.981Z,17.64
2022-10-09T19:27:04.144Z,17.54
2022-10-09T19:29:50.167Z,17.61
2022-10-09T19:32:36.129Z,17.56
2022-10-09T19:35:22.479Z,17.49
2022-10-09T19:38:08.462Z,17.46
2022-10-09T19:40:54.541Z,17.35
2022-10-09T19:43:41.402Z,17.36
2022-10-09T19:46:27.716Z,17.36
2022-10-09T19:49:14.094Z,17.34
2022-10-09T19:52:00.350Z,17.29
2022-10-09T19:54:46.259Z,17.22
2022-10-09T19:57:32.195Z,17.22
2022-10-09T20:00:18.204Z,17.15
2022-10-09T20:03:04.145Z,17.10
2022-10-09T20:05:50.217Z,16.96
2022-10-09T20:08:37.638Z,16.91
2022-10-09T20:11:23.816Z,16.87
2022-10-09T20:14:10.997Z,16.84
2022-10-09T20:16:56.898Z,16.85
2022-10-09T20:19:45.780Z,16.78
2022-10-09T20:22:31.805Z,16.73
2022-10-09T20:25:18.081Z,16.63
2022-10-09T20:28:04.367Z,16.61
2022-10-09T20:30:58.158Z,16.56
2022-10-09T20:33:45.413Z,16.51
2022-10-09T20:36:35.460Z,16.47
2022-10-09T20:39:21.973Z,16.45
2022-10-09T20:42:08.181Z,16.39
2022-10-09T20:44:54.470Z,16.36
2022-10-09T20:47:40.622Z,16.33
2022-10-09T20:50:26.689Z,16.31
2022-10-09T20:53:12.665Z,16.24
2022-10-09T20:56:08.594Z,16.21
2022-10-09T20:58:55.762Z,16.15
2022-10-09T21:01:41.775Z,16.12
2022-10-09T21:04:27.746Z,16.06
2022-10-09T21:07:13.724Z,15.93
2022-10-09T21:09:59.579Z,15.93
2022-10-09T21:12:45.580Z,15.91
2022-10-09T21:15:31.798Z,15.86
2022-10-09T21:18:18.900Z,15.85
2022-10-09T21:21:16.359Z,15.75
2022-10-09T21:24:02.736Z,15.74
2022-10-09T21:26:48.921Z,15.73
2022-10-09T21:29:35.290Z,15.68
2022-10-09T21:32:21.178Z,15.64
2022-10-09T21:35:07.455Z,15.62
2022-10-09T21:37:53.795Z,15.56
2022-10-09T21:40:40.081Z,15.60
2022-10-09T21:43:26.414Z,15.60
2022-10-09T21:46:12.250Z,15.52
2022-10-09T21:48:58.306Z,15.55
2022-10-09T21:51:44.438Z,15.56
2022-10-09T21:54:30.336Z,15.53
2022-10-09T21:57:16.244Z,15.46
2022-10-09T22:00:02.105Z,15.45
2022-10-09T22:02:50.798Z,15.52
2022-10-09T22:05:39.782Z,15.46
2022-10-09T22:08:26.242Z,15.45
2022-10-09T22:11:12.581Z,15.45
2022-10-09T22:13:58.629Z,15.40
2022-10-09T22:16:44.867Z,15.40
2022-10-09T22:19:31.753Z,15.28
2022-10-09T22:22:18.222Z,15.34
2022-10-09T22:25:04.436Z,15.27
2022-10-09T22:27:50.332Z,15.23
2022-10-09T22:30:36.435Z,15.22
2022-10-09T22:33:22.659Z,15.16
2022-10-09T22:36:12.630Z,15.18
2022-10-09T22:39:00.769Z,15.08
2022-10-09T22:41:46.793Z,15.01
2022-10-09T22:44:32.661Z,14.96
2022-10-09T22:47:18.549Z,14.99
2022-10-09T22:50:04.788Z,14.98
2022-10-09T22:52:51.287Z,14.94
2022-10-09T22:55:40.695Z,14.92
2022-10-09T22:58:27.110Z,14.81
2022-10-09T23:01:20.697Z,14.85
2022-10-09T23:04:09.872Z,14.82
2022-10-09T23:06:58.105Z,14.75
2022-10-09T23:09:44.262Z,14.73
2022-10-09T23:12:30.215Z,14.69
2022-10-09T23:15:16.213Z,14.69
2022-10-09T23:18:03.314Z,14.62
2022-10-09T23:20:49.382Z,14.62
2022-10-09T23:23:35.451Z,14.56
2022-10-09T23:26:23.968Z,14.57
2022-10-09T23:29:14.252Z,14.56
2022-10-09T23:32:00.391Z,14.51
2022-10-09T23:34:46.435Z,14.47
2022-10-09T23:37:32.689Z,14.41
2022-10-09T23:40:18.853Z,14.41
2022-10-09T23:43:04.918Z,14.35
2022-10-09T23:45:51.464Z,14.42
2022-10-09T23:48:37.532Z,14.38
2022-10-09T23:51:25.046Z,14.37
2022-10-09T23:54:11.589Z,14.26
2022-10-09T23:56:57.392Z,14.30
2022-10-09T23:59:43.441Z,14.25
